LTBL/IGI METAR and TAF weather

Enter ICAO airport designator
Station Type Date Time Source
LTBL METAR 2019/08/20 08:50 UTC NOAA

LTBL 200850Z VRB06KT CAVOK 29/14 Q1014 NOSIG RMK RWY17 01013KT


Station Type Date Time Source
LTBL Decoded METAR 2019/08/20 08:50 UTC NOAA

Izmir / Cigli, Turkey (LTBL) 38-30N 027-01E 5M
Aug 20, 2019 - 04:50 AM EDT / 2019.08.20 0850 UTC
Wind: Variable at 7 MPH (6 KT):0
Visibility: greater than 7 mile(s):0
Temperature: 84 F (29 C)
Dew Point: 57 F (14 C)
Relative Humidity: 39%
Pressure (altimeter): 29.94 in. Hg (1014 hPa)
ob: LTBL 200850Z VRB06KT CAVOK 29/14 Q1014 NOSIG RMK RWY17 01013KT
cycle: 9

Station Type Date Time Source
LTBL TAF UTC NOAA

Error!

Example: see airport list